Latest Coastal Weather Observations for Point Fawcett

IDD60701

Issued at 2:21 am CST Friday 28 April 2017 (issued every 10 minutes, with the page automatically refreshed every 10 minutes)

About coastal observations | Map of coastal stations | Coastal observations for NT | Marine services | Other Formats
Station Details ID: 200731 Name: POINT FAWCETT Lat: -11.76 Lon: 130.03 Height: 6.5 m
Data from the previous 72 hours. | See also: Recent months at Point Fawcett
Date/Time
CST
Temp
°C
Wind Pressure Rain since
9am
mm
Weather Cloud Vis
km
Sea
Height
m
Swell
Dir  Spd
kts
Gust
kts
hPa Trend Height
m
Period
s
Dir
28/02:00am 24.1 E 7 11 1009.9 - 103.4 - - - - - - -
28/01:30am 23.9 E 9 14 1010.2 - 103.4 - - - - - - -
28/01:00am 23.8 E 9 14 1010.5 - 102.2 - - - - - - -
28/12:30am 24.0 E 9 17 1010.6 - 101.8 - - - - - - -
28/12:00am 24.1 E 8 13 1010.9 - 100.8 - - - - - - -
 
Date/Time
CST
Temp
°C
Wind Pressure Rain since
9am
mm
Weather Cloud Vis
km
Sea
Height
m
Swell
Dir  Spd
kts
Gust
kts
hPa Trend Height
m
Period
s
Dir
27/11:30pm 24.6 E 7 15 1011.2 - 92.8 - - - - - - -
27/11:00pm 24.7 ENE 7 11 1011.0 - 88.4 - - - - - - -
27/10:30pm 24.7 E 9 15 1010.7 - 83.0 - - - - - - -
27/10:00pm 24.6 E 9 18 1010.6 - 79.6 - - - - - - -
27/09:30pm 24.4 E 7 11 1010.4 - 79.2 - - - - - - -
27/09:00pm 24.3 E 9 13 1010.3 - 76.2 - - - - - - -
27/08:30pm 24.2 E 9 15 1010.0 - 73.0 - - - - - - -
27/08:00pm 24.2 E 9 15 1009.6 - 70.8 - - - - - - -
27/07:30pm 24.0 E 8 14 1009.2 - 69.4 - - - - - - -
27/07:00pm 24.1 E 10 18 1008.9 - 67.0 - - - - - - -
27/06:30pm 24.3 ESE 10 19 1008.4 - 63.2 - - - - - - -
27/06:00pm 24.2 ESE 9 17 1007.9 - 60.0 - - - - - - -
27/05:30pm 24.3 SE 12 21 1007.7 - 55.2 - - - - - - -
27/05:00pm 24.4 ESE 11 19 1007.2 - 49.8 - - - - - - -
27/04:30pm 24.3 SE 8 14 1007.2 - 47.0 - - - - - - -
27/04:00pm 24.4 ESE 11 22 1007.3 - 39.0 - - - - - - -
27/03:30pm 24.1 SE 11 23 1007.4 - 35.6 - - - - - - -
27/03:00pm 24.1 ESE 12 21 1007.7 - 28.8 - - - - - - -
27/02:43pm 24.1 ESE 15 27 1007.2 - 27.0 - - - - - - -
27/02:30pm 24.3 ESE 11 19 1007.2 - 26.6 - - - - - - -
27/02:00pm 24.1 SE 10 19 1007.9 - 23.6 - - - - - - -
27/01:30pm 24.6 SE 9 19 1008.2 - 21.0 - - - - - - -
27/01:00pm 24.4 SE 10 20 1008.8 - 20.2 - - - - - - -
27/12:30pm 24.3 SE 10 16 1009.3 - 18.0 - - - - - - -
27/12:00pm 24.3 SE 10 19 1009.6 - 13.4 - - - - - - -
27/11:30am 24.3 SE 9 17 1010.1 - 11.6 - - - - - - -
27/11:00am 24.3 SE 10 18 1010.8 - 9.2 - - - - - - -
27/10:30am 24.3 SE 9 18 1010.3 - 7.8 - - - - - - -
27/10:00am 24.4 ESE 9 16 1010.6 - 5.2 - - - - - - -
27/09:30am 24.2 SE 9 17 1010.3 - 3.2 - - - - - - -
27/09:00am 24.3 ESE 8 16 1010.6 - 8.0 - - - - - - -
27/08:30am 24.6 SE 7 15 1009.9 - 6.0 - - - - - - -
27/08:00am 24.4 ESE 7 10 1010.2 - 5.6 - - - - - - -
27/07:30am 24.1 SE 6 13 1009.5 - 5.0 - - - - - - -
27/07:00am 23.9 SE 6 12 1008.8 - 4.6 - - - - - - -
27/06:30am 23.6 SE 6 10 1008.9 - 4.2 - - - - - - -
27/06:00am 23.6 ESE 7 13 1008.4 - 4.2 - - - - - - -
27/05:30am 23.4 SE 4 6 1008.3 - 3.6 - - - - - - -
27/05:00am 23.5 ESE 6 9 1008.5 - 2.8 - - - - - - -
27/04:30am 23.8 ESE 5 7 1008.8 - 2.4 - - - - - - -
27/04:00am 23.6 E 5 8 1009.1 - 2.2 - - - - - - -
27/03:30am 23.6 ESE 5 7 1009.1 - 2.0 - - - - - - -
27/03:00am 23.7 SE 7 13 1009.2 - 1.6 - - - - - - -
27/02:30am 24.1 E 8 13 1009.6 - 1.0 - - - - - - -
27/02:00am 24.9 E 6 9 1009.3 - 0.4 - - - - - - -
27/01:30am 26.5 E 7 12 1009.5 - 0.0 - - - - - - -
27/01:00am 26.4 ESE 8 14 1009.3 - 0.0 - - - - - - -
27/12:30am 26.8 E 7 14 1009.6 - 0.0 - - - - - - -
27/12:00am 26.6 ESE 4 6 1009.4 - 0.0 - - - - - - -
 
Date/Time
CST
Temp
°C
Wind Pressure Rain since
9am
mm
Weather Cloud Vis
km
Sea
Height
m
Swell
Dir  Spd
kts
Gust
kts
hPa Trend Height
m
Period
s
Dir
26/11:30pm 26.8 E 3 4 1009.6 - 0.0 - - - - - - -
26/11:00pm 27.3 E 4 6 1009.7 - 0.0 - - - - - - -
26/10:30pm 27.7 E 5 8 1009.5 - 0.0 - - - - - - -
26/10:00pm 27.8 SE 5 8 1009.3 - 0.0 - - - - - - -
26/09:30pm 27.8 ESE 5 9 1009.3 - 0.0 - - - - - - -
26/09:00pm 27.6 SE 4 7 1009.2 - 0.0 - - - - - - -
26/08:30pm 27.7 ESE 4 8 1009.2 - 0.0 - - - - - - -
26/08:00pm 28.0 ESE 6 11 1009.2 - 0.0 - - - - - - -
26/07:30pm 28.1 ESE 6 10 1009.2 - 0.0 - - - - - - -
26/07:00pm 27.8 ESE 5 11 1008.8 - 0.0 - - - - - - -
26/06:30pm 27.7 ESE 5 8 1008.6 - 0.0 - - - - - - -
26/06:00pm 27.9 ESE 7 10 1008.0 - 0.0 - - - - - - -
26/05:30pm 28.1 ESE 6 9 1007.8 - 0.0 - - - - - - -
26/05:00pm 28.3 ESE 6 12 1007.7 - 0.0 - - - - - - -
26/04:30pm 28.5 SE 4 7 1007.5 - 0.0 - - - - - - -
26/04:00pm 28.4 ESE 5 8 1007.5 - 0.0 - - - - - - -
26/03:30pm 28.6 ESE 6 9 1007.6 - 0.0 - - - - - - -
26/03:00pm 29.0 SE 6 8 1007.7 - 0.0 - - - - - - -
26/02:30pm 28.9 ESE 5 9 1008.0 - 0.0 - - - - - - -
26/02:00pm 29.2 ESE 6 9 1008.4 - 0.0 - - - - - - -
26/01:30pm 29.2 ESE 6 10 1008.7 - 0.0 - - - - - - -
26/01:00pm 29.3 ESE 6 11 1009.0 - 0.0 - - - - - - -
26/12:30pm 29.4 ESE 6 10 1009.3 - 0.0 - - - - - - -
26/12:00pm 29.3 ESE 6 12 1010.0 - 0.0 - - - - - - -
26/11:30am 29.2 SE 6 12 1010.3 - 0.0 - - - - - - -
26/11:00am 28.9 SE 5 8 1010.6 - 0.0 - - - - - - -
26/10:30am 28.9 SE 5 8 1010.9 - 0.0 - - - - - - -
26/10:00am 28.4 SE 4 7 1011.0 - 0.0 - - - - - - -
26/09:30am 27.3 ESE 4 5 1011.1 - 0.0 - - - - - - -
26/09:00am 26.2 SE 3 5 1010.9 - 0.0 - - - - - - -
26/08:30am 25.9 SE 3 5 1010.7 - 0.0 - - - - - - -
26/08:00am 25.7 ESE 3 5 1010.1 - 0.0 - - - - - - -
26/07:30am 25.1 SSE 3 5 1009.4 - 0.0 - - - - - - -
26/07:00am 24.9 SE 3 4 1009.3 - 0.0 - - - - - - -
26/06:30am 25.1 SSE 3 4 1009.3 - 0.0 - - - - - - -
26/06:00am 25.1 S 3 5 1009.1 - 0.0 - - - - - - -
26/05:30am 25.1 SE 3 4 1009.2 - 0.0 - - - - - - -
26/05:00am 25.3 SSE 3 4 1009.2 - 0.0 - - - - - - -
26/04:30am 24.8 S 3 5 1009.1 - 0.0 - - - - - - -
26/04:00am 24.4 S 3 5 1008.9 - 0.0 - - - - - - -
26/03:30am 24.0 S 4 6 1008.9 - 0.0 - - - - - - -
26/03:00am 23.7 S 4 5 1008.9 - 0.0 - - - - - - -
26/02:30am 23.7 S 4 5 1009.2 - 0.0 - - - - - - -
26/02:00am 23.6 S 4 5 1009.4 - 0.0 - - - - - - -
26/01:30am 23.6 S 4 6 1009.7 - 0.0 - - - - - - -
26/01:00am 23.4 S 4 5 1010.1 - 0.0 - - - - - - -
26/12:30am 23.6 SSE 4 4 1010.4 - 0.0 - - - - - - -
26/12:00am 23.8 SE 4 5 1010.6 - 0.0 - - - - - - -
 
Date/Time
CST
Temp
°C
Wind Pressure Rain since
9am
mm
Weather Cloud Vis
km
Sea
Height
m
Swell
Dir  Spd
kts
Gust
kts
hPa Trend Height
m
Period
s
Dir
25/11:30pm 24.3 ESE 4 4 1010.9 - 0.0 - - - - - - -
25/11:00pm 24.4 ESE 4 4 1011.1 - 0.0 - - - - - - -
25/10:30pm 24.7 ESE 3 4 1011.3 - 0.0 - - - - - - -
25/10:00pm 25.0 E 4 5 1011.3 - 0.0 - - - - - - -
25/09:30pm 25.4 ESE 3 4 1011.3 - 0.0 - - - - - - -
25/09:00pm 25.9 ESE 3 4 1010.8 - 0.0 - - - - - - -
25/08:30pm 26.4 SSE 3 3 1010.7 - 0.0 - - - - - - -
25/08:00pm 27.0 SSE 3 4 1010.2 - 0.0 - - - - - - -
25/07:30pm 27.4 SSE 3 4 1009.7 - 0.0 - - - - - - -
25/07:00pm 27.9 SE 3 4 1009.3 - 0.0 - - - - - - -
25/06:30pm 29.0 ESE 3 5 1009.3 - 0.0 - - - - - - -
25/06:00pm 30.1 E 4 6 1008.9 - 0.0 - - - - - - -
25/05:30pm 31.2 E 5 7 1008.7 - 0.0 - - - - - - -
25/05:00pm 31.6 E 5 6 1008.3 - 0.0 - - - - - - -
25/04:30pm 31.9 SE 5 7 1008.3 - 0.0 - - - - - - -
25/04:00pm 31.8 E 6 11 1008.4 - 0.0 - - - - - - -
25/03:30pm 32.0 SSE 5 8 1008.3 - 0.0 - - - - - - -
25/03:00pm 32.5 S 6 11 1008.4 - 0.0 - - - - - - -
25/02:30pm 32.1 S 7 11 1008.7 - 0.0 - - - - - - -
25/02:00pm 32.9 S 6 9 1009.1 - 0.0 - - - - - - -
25/01:30pm 32.4 S 7 12 1009.5 - 0.0 - - - - - - -
25/01:00pm 32.6 S 7 11 1009.9 - 0.0 - - - - - - -
25/12:30pm 32.6 SSE 7 12 1010.4 - 0.0 - - - - - - -
25/12:00pm 32.5 SE 6 10 1010.8 - 0.0 - - - - - - -
25/11:30am 30.5 N 4 6 1011.4 - 0.0 - - - - - - -
25/11:00am 30.7 WNW 4 5 1011.6 - 0.0 - - - - - - -
25/10:30am 30.5 NNW 4 5 1011.8 - 0.0 - - - - - - -
25/10:00am 30.5 N 4 5 1011.7 - 0.0 - - - - - - -
25/09:30am 30.5 N 4 5 1011.7 - 0.0 - - - - - - -
25/09:00am 29.0 NE 3 5 1011.3 - 0.0 - - - - - - -
25/08:30am 27.8 NE 3 4 1011.1 - 0.0 - - - - - - -
25/08:00am 25.4 ESE 3 3 1010.6 - 0.0 - - - - - - -
25/07:30am 23.0 ESE 3 4 1010.3 - 0.0 - - - - - - -
25/07:00am 22.7 E 4 5 1010.1 - 0.0 - - - - - - -
25/06:30am 22.9 E 5 6 1010.1 - 0.0 - - - - - - -
25/06:00am 22.8 ESE 4 5 1009.8 - 0.0 - - - - - - -
25/05:30am 22.9 ESE 4 5 1009.9 - 0.0 - - - - - - -
25/05:00am 23.0 ESE 5 7 1009.9 - 0.0 - - - - - - -
25/04:30am 23.0 ESE 4 5 1009.8 - 0.0 - - - - - - -
25/04:00am 22.9 ESE 5 7 1009.8 - 0.0 - - - - - - -
25/03:30am 23.1 SE 4 5 1009.6 - 0.0 - - - - - - -
25/03:00am 23.2 ESE 4 5 1009.8 - 0.0 - - - - - - -
25/02:30am 23.5 ESE 4 5 1010.2 - 0.0 - - - - - - -

Other Formats:

Comma delimited format used in spreadsheet applications
http://www.bom.gov.au/fwo/IDD60701/IDD60701.94122.axf

JavaScript Object Notation format (JSON) in row-major order
http://www.bom.gov.au/fwo/IDD60701/IDD60701.94122.json